Urb Dos Ceibas, Puerto Rico
Current Conditions -  °F | °C
As of 2:50 PM on Thursday 30 Oct 2014 (Local Time) from TJBQ Reporting Station
Broken Clouds Broken Clouds  
Wind Chill: 84°   Ceiling: 4900
Heat Index: 92°   Visibility: 10mi
Dew Point: 75°   Wind: 7mph
Humidity: 74%   Direction: 20°NNE
Pressure: 29.8"   Gusts: NA
Location:  18.4738°N, 66.9364°W
Report Text: TJBQ 301850Z 02006KT 10SM SCT018 SCT035 BKN049 29/24 A2980 RMK LTG DSNT E- RWY08 ATIS A
Loading
Personal Weather Stations






























Interactive Weather Map
Tropical Storm Tracking
New forecast layout! Learn more

10-Day Weather Forecast

Advertisements
Track Severe Weather on mobile